Time;durP1;ratioP1;P1;durP2;ratioP2;P2;SDS_P1;SDS_P2;PMS_P1;PMS_P2;Temp;Humidity;BMP_temperature;BMP_pressure;BME280_temperature;BME280_humidity;BME280_pressure;Samples;Min_cycle;Max_cycle;Signal;HPM_P1;HPM_P2
2022/12/21 00:01:11;;;;;;;21.43;17.60;;;;;;;9.62;100.00;99679.78;5100954;28;20501;-62
2022/12/21 00:03:38;;;;;;;21.30;17.10;;;;;;;9.67;100.00;99682.84;5102221;28;20444;-62
2022/12/21 00:06:05;;;;;;;21.40;18.10;;;;;;;9.68;100.00;99683.69;5101868;28;20540;-61
2022/12/21 00:08:33;;;;;;;23.77;17.20;;;;;;;9.60;100.00;99679.09;5101868;28;20439;-62
2022/12/21 00:11:02;;;;;;;20.17;17.30;;;;;;;9.68;100.00;99679.19;5101834;28;20501;-64
2022/12/21 00:13:29;;;;;;;19.90;17.60;;;;;;;9.68;100.00;99679.19;5101593;28;20444;-63
2022/12/21 00:15:59;;;;;;;19.70;17.13;;;;;;;9.69;100.00;99680.88;5101352;28;20920;-62
2022/12/21 00:18:26;;;;;;;19.83;16.13;;;;;;;9.75;100.00;99684.78;5102076;28;20471;-63
2022/12/21 00:21:03;;;;;;;20.83;17.47;;;;;;;9.77;100.00;99685.44;5101465;27;20483;-62
2022/12/21 00:23:31;;;;;;;23.53;17.20;;;;;;;9.72;100.00;99687.72;5102707;28;20443;-63
2022/12/21 00:25:59;;;;;;;22.47;18.67;;;;;;;9.74;100.00;99683.09;5100324;27;20479;-62
2022/12/21 00:28:28;;;;;;;21.40;17.10;;;;;;;9.73;100.00;99682.25;5102486;28;20550;-63
2022/12/21 00:30:55;;;;;;;22.60;16.90;;;;;;;9.75;100.00;99682.09;5101170;28;20484;-62
2022/12/21 00:33:22;;;;;;;25.57;16.37;;;;;;;9.85;100.00;99682.06;5102115;28;20439;-62
2022/12/21 00:35:49;;;;;;;23.20;18.20;;;;;;;9.92;100.00;99681.28;5078125;28;20487;-63
2022/12/21 00:38:16;;;;;;;23.17;17.87;;;;;;;9.80;100.00;99672.66;5102459;28;20509;-62
2022/12/21 00:40:42;;;;;;;23.63;18.00;;;;;;;9.78;100.00;99684.47;5100840;28;20520;-62
2022/12/21 00:43:10;;;;;;;23.70;18.00;;;;;;;9.88;100.00;99685.25;5101050;28;20439;-63
2022/12/21 00:45:39;;;;;;;26.40;18.57;;;;;;;9.83;100.00;99686.72;5099983;27;20471;-62
2022/12/21 00:48:07;;;;;;;24.67;17.70;;;;;;;9.89;100.00;99688.75;5102155;28;20450;-63
2022/12/21 00:50:34;;;;;;;26.03;18.07;;;;;;;9.86;100.00;99697.06;5099579;28;20466;-63
2022/12/21 00:53:01;;;;;;;27.27;19.63;;;;;;;9.98;100.00;99698.53;5101666;28;20440;-63
2022/12/21 00:55:28;;;;;;;25.03;18.23;;;;;;;9.86;100.00;99707.75;5100741;27;20481;-63
2022/12/21 00:57:56;;;;;;;30.00;21.33;;;;;;;9.90;100.00;99709.97;5101140;28;20981;-63
2022/12/21 01:00:23;;;;;;;29.30;20.70;;;;;;;9.95;100.00;99702.38;5100884;28;20596;-63
2022/12/21 01:02:51;;;;;;;27.70;21.03;;;;;;;9.96;100.00;99697.84;5101221;28;20509;-62
2022/12/21 01:05:18;;;;;;;29.57;19.97;;;;;;;9.88;100.00;99703.13;5099780;28;20448;-63
2022/12/21 01:07:45;;;;;;;31.67;21.83;;;;;;;9.90;100.00;99709.97;5101355;28;20466;-63
2022/12/21 01:10:12;;;;;;;36.30;21.93;;;;;;;9.82;100.00;99709.88;5100190;28;20443;-62
2022/12/21 01:12:38;;;;;;;33.77;21.87;;;;;;;9.83;100.00;99714.25;5100772;28;20473;-62
2022/12/21 01:15:06;;;;;;;41.60;23.30;;;;;;;9.98;100.00;99725.25;5100723;28;20475;-62
2022/12/21 01:17:33;;;;;;;31.90;20.97;;;;;;;9.93;100.00;99722.19;5100351;28;20568;-62
2022/12/21 01:20:01;;;;;;;33.67;22.33;;;;;;;9.86;100.00;99723.75;5100885;28;20420;-62
2022/12/21 01:22:28;;;;;;;35.17;23.97;;;;;;;9.86;100.00;99731.78;5100827;28;20479;-62
2022/12/21 01:24:55;;;;;;;37.80;25.27;;;;;;;9.91;100.00;99729.50;5100112;28;20455;-62
2022/12/21 01:27:21;;;;;;;38.17;25.03;;;;;;;9.93;100.00;99725.72;5100610;28;20475;-62
2022/12/21 01:29:48;;;;;;;38.80;24.10;;;;;;;9.86;100.00;99732.63;5100468;28;20436;-62
2022/12/21 01:32:15;;;;;;;45.07;26.80;;;;;;;9.84;100.00;99731.09;5099698;28;20518;-63
2022/12/21 01:34:42;;;;;;;43.03;25.10;;;;;;;9.94;100.00;99731.88;5100728;28;20448;-62
2022/12/21 01:37:10;;;;;;;44.00;26.70;;;;;;;9.86;100.00;99734.44;5099654;28;20503;-62
2022/12/21 01:39:36;;;;;;;43.57;26.10;;;;;;;9.93;100.00;99738.19;5100234;28;20536;-62
2022/12/21 01:42:03;;;;;;;48.07;26.43;;;;;;;9.82;100.00;99743.75;5100109;27;20479;-62
2022/12/21 01:45:05;;;;;;;43.10;25.40;;;;;;;9.80;100.00;99743.91;5100133;28;20508;-61
2022/12/21 01:47:41;;;;;;;38.63;23.40;;;;;;;9.72;100.00;99744.66;5093458;28;20467;-61
2022/12/21 01:50:27;;;;;;;46.70;25.83;;;;;;;9.85;100.00;99741.63;5099162;27;20491;-62
2022/12/21 01:52:57;;;;;;;40.30;24.57;;;;;;;9.79;100.00;99743.06;5102440;28;20446;-62
2022/12/21 01:55:24;;;;;;;41.37;25.23;;;;;;;9.71;100.00;99742.97;5066278;28;20452;-61
2022/12/21 01:57:51;;;;;;;43.63;24.30;;;;;;;9.77;100.00;99741.50;5105495;28;20466;-62
2022/12/21 02:00:18;;;;;;;40.40;24.50;;;;;;;9.76;100.00;99737.19;5106837;27;20467;-61
2022/12/21 02:02:50;;;;;;;48.70;26.20;;;;;;;9.78;100.00;99736.03;5107601;28;20451;-61
2022/12/21 02:05:21;;;;;;;45.23;26.97;;;;;;;9.85;100.00;99732.78;5105301;28;20447;-63
2022/12/21 02:07:48;;;;;;;45.30;25.97;;;;;;;9.86;100.00;99739.78;5105651;28;20447;-63
2022/12/21 02:10:16;;;;;;;48.47;25.47;;;;;;;9.83;100.00;99726.75;5106870;28;20440;-63
2022/12/21 02:12:44;;;;;;;38.93;24.50;;;;;;;9.86;100.00;99727.28;5106966;28;20463;-63
2022/12/21 02:15:11;;;;;;;42.10;24.20;;;;;;;9.90;100.00;99727.84;5077106;27;20462;-64
2022/12/21 02:17:46;;;;;;;38.00;23.70;;;;;;;9.79;100.00;99728.84;5107118;28;20491;-63
2022/12/21 02:20:44;;;;;;;36.50;22.73;;;;;;;9.75;100.00;99733.66;5105938;27;20528;-63
2022/12/21 02:23:55;;;;;;;38.53;22.20;;;;;;;9.76;100.00;99735.34;5106992;28;20439;-63
2022/12/21 02:26:37;;;;;;;39.27;24.00;;;;;;;9.70;100.00;99735.09;5069708;28;20471;-63
2022/12/21 02:29:26;;;;;;;39.93;25.00;;;;;;;9.69;100.00;99739.59;5105326;28;20454;-63
2022/12/21 02:31:59;;;;;;;41.60;23.30;;;;;;;9.80;100.00;99715.34;5105158;27;20481;-63
2022/12/21 02:34:33;;;;;;;45.77;25.50;;;;;;;9.71;100.00;99721.59;5106515;28;20466;-63
2022/12/21 02:37:04;;;;;;;39.47;23.60;;;;;;;9.69;100.00;99725.41;5105749;28;20479;-63
2022/12/21 02:39:34;;;;;;;42.27;23.80;;;;;;;9.68;100.00;99721.06;5107052;28;20550;-63
2022/12/21 02:42:03;;;;;;;43.47;25.43;;;;;;;9.66;100.00;99725.72;5106199;28;20483;-63
2022/12/21 02:44:43;;;;;;;45.60;23.53;;;;;;;9.61;100.00;99715.47;5106555;28;20483;-63
2022/12/21 02:47:14;;;;;;;43.50;26.13;;;;;;;9.57;100.00;99720.25;5105574;27;20481;-63
2022/12/21 02:49:46;;;;;;;50.20;27.60;;;;;;;9.62;100.00;99717.16;5106793;28;20992;-63
2022/12/21 02:52:17;;;;;;;47.50;26.20;;;;;;;9.69;100.00;99718.25;5103726;27;20524;-62
2022/12/21 02:54:45;;;;;;;47.57;25.77;;;;;;;9.62;100.00;99727.84;5106992;28;20995;-63
2022/12/21 02:57:12;;;;;;;50.37;27.03;;;;;;;9.66;100.00;99731.03;5106726;28;20509;-63
2022/12/21 02:59:42;;;;;;;53.90;27.17;;;;;;;9.65;100.00;99734.69;5107006;28;20442;-63
2022/12/21 03:02:32;;;;;;;46.53;26.27;;;;;;;9.66;100.00;99731.03;5105477;28;20475;-63
2022/12/21 03:05:12;;;;;;;45.43;25.53;;;;;;;9.74;100.00;99739.16;5104459;28;20479;-62
2022/12/21 03:07:48;;;;;;;45.60;25.00;;;;;;;9.63;100.00;99737.50;5102987;28;20972;-62
2022/12/21 03:10:22;;;;;;;50.23;26.20;;;;;;;9.64;100.00;99736.53;5102949;28;20444;-62
2022/12/21 03:12:57;;;;;;;52.13;25.90;;;;;;;9.63;100.00;99734.00;5103300;28;20505;-62
2022/12/21 03:15:31;;;;;;;56.17;27.37;;;;;;;9.60;100.00;99730.66;5073697;28;20473;-62
2022/12/21 03:18:07;;;;;;;51.93;25.57;;;;;;;9.63;100.00;99737.50;5102833;28;20486;-62
2022/12/21 03:20:38;;;;;;;46.20;25.70;;;;;;;9.65;100.00;99742.69;5102379;27;20459;-63
2022/12/21 03:23:09;;;;;;;49.93;27.20;;;;;;;9.61;100.00;99734.97;5103892;28;20457;-62
2022/12/21 03:25:41;;;;;;;48.03;25.30;;;;;;;9.53;100.00;99745.56;5102111;28;20482;-63
2022/12/21 03:28:11;;;;;;;58.87;29.17;;;;;;;9.60;100.00;99748.50;5103200;28;20440;-63
2022/12/21 03:30:42;;;;;;;49.60;25.50;;;;;;;9.53;100.00;99752.72;5102441;27;20853;-63
2022/12/21 03:33:14;;;;;;;48.20;25.80;;;;;;;9.53;100.00;99753.56;5102839;28;21011;-63
2022/12/21 03:35:45;;;;;;;50.00;26.13;;;;;;;9.51;100.00;99744.03;5101880;28;20475;-63
2022/12/21 03:38:26;;;;;;;47.40;26.13;;;;;;;9.54;100.00;99749.06;5102691;28;20498;-63
2022/12/21 03:40:56;;;;;;;49.40;26.00;;;;;;;9.61;100.00;99734.16;5102444;27;20481;-63
2022/12/21 03:43:27;;;;;;;50.90;25.30;;;;;;;9.68;100.00;99727.22;5102403;28;20440;-63
2022/12/21 03:45:56;;;;;;;51.87;24.87;;;;;;;9.66;100.00;99728.38;5100587;28;20489;-63
2022/12/21 03:48:27;;;;;;;41.67;22.57;;;;;;;9.54;100.00;99735.72;5103040;28;20431;-63
2022/12/21 03:50:56;;;;;;;38.70;21.07;;;;;;;9.69;100.00;99731.59;5100891;28;20483;-63
2022/12/21 03:53:33;;;;;;;35.87;20.63;;;;;;;9.72;100.00;99736.63;5103413;28;20481;-63
2022/12/21 03:56:03;;;;;;;39.80;21.27;;;;;;;9.64;100.00;99739.19;5101541;28;20475;-63
2022/12/21 03:58:30;;;;;;;38.73;19.77;;;;;;;9.61;100.00;99737.66;5102584;28;20476;-63
2022/12/21 04:01:01;;;;;;;35.20;18.30;;;;;;;9.63;100.00;99734.00;5100672;28;20466;-63
2022/12/21 04:03:32;;;;;;;36.33;19.47;;;;;;;9.63;100.00;99731.34;5102293;28;20446;-63
2022/12/21 04:06:02;;;;;;;31.33;17.93;;;;;;;9.65;100.00;99730.19;5100900;28;20475;-63
2022/12/21 04:08:30;;;;;;;32.87;17.50;;;;;;;9.64;100.00;99725.84;5102730;28;20464;-63
2022/12/21 04:10:58;;;;;;;32.10;18.80;;;;;;;9.61;100.00;99734.16;5101460;28;20503;-63
2022/12/21 04:13:24;;;;;;;33.07;16.80;;;;;;;9.49;100.00;99730.81;5102414;28;20660;-63
2022/12/21 04:16:06;;;;;;;32.00;18.07;;;;;;;9.51;100.00;99726.19;5100493;28;20471;-63
2022/12/21 04:21:19;;;;;;;29.10;15.90;;;;;;;9.63;100.00;99718.00;5101316;28;20478;-63
2022/12/21 04:29:14;;;;;;;32.50;16.83;;;;;;;9.56;100.00;99721.22;5101726;28;20535;-64
2022/12/21 04:31:41;;;;;;;31.50;17.73;;;;;;;9.58;100.00;99713.09;5100288;28;20507;-64
2022/12/21 04:34:09;;;;;;;27.30;15.20;;;;;;;9.59;100.00;99712.94;5101567;28;20440;-63
2022/12/21 04:39:20;;;;;;;29.00;16.83;;;;;;;9.57;100.00;99709.59;5101606;28;20485;-64
2022/12/21 04:41:46;;;;;;;25.27;15.57;;;;;;;9.57;100.00;99706.09;5100172;28;20502;-63
2022/12/21 04:44:13;;;;;;;24.83;14.13;;;;;;;9.64;100.00;99691.16;5101092;28;20508;-64
2022/12/21 04:46:40;;;;;;;25.77;14.90;;;;;;;9.47;100.00;99702.63;5100502;27;20479;-64
2022/12/21 04:49:07;;;;;;;25.63;13.20;;;;;;;9.45;100.00;99699.25;5101166;28;20485;-64
2022/12/21 04:51:35;;;;;;;25.10;14.40;;;;;;;9.56;100.00;99697.22;5099853;28;20494;-64
2022/12/21 04:54:03;;;;;;;28.53;16.30;;;;;;;9.45;100.00;99700.09;5101218;28;20432;-64
2022/12/21 04:56:29;;;;;;;29.20;16.47;;;;;;;9.61;100.00;99702.13;5100694;28;20475;-64
2022/12/21 04:58:56;;;;;;;30.83;17.17;;;;;;;9.48;100.00;99704.28;5100614;28;20505;-63
2022/12/21 05:01:23;;;;;;;31.77;16.47;;;;;;;9.51;100.00;99709.31;5100031;28;20528;-63
2022/12/21 05:03:50;;;;;;;38.13;18.60;;;;;;;9.46;100.00;99707.13;5100886;28;20491;-63
2022/12/21 05:06:19;;;;;;;37.07;17.20;;;;;;;9.48;100.00;99702.47;5100382;27;20573;-63
2022/12/21 05:08:47;;;;;;;37.73;19.47;;;;;;;9.42;100.00;99693.19;5101627;28;20558;-63
2022/12/21 05:11:16;;;;;;;34.20;17.53;;;;;;;9.46;100.00;99701.78;5095388;28;20505;-63
2022/12/21 05:13:42;;;;;;;40.37;18.40;;;;;;;9.46;100.00;99696.44;5100168;28;20439;-66
2022/12/21 05:16:14;;;;;;;37.13;18.33;;;;;;;9.43;100.00;99697.56;5099610;28;20479;-66
2022/12/21 05:18:41;;;;;;;38.97;18.40;;;;;;;9.41;100.00;99686.22;5101592;28;20471;-66
2022/12/21 05:21:08;;;;;;;38.63;18.23;;;;;;;9.39;100.00;99690.00;5099879;28;20505;-66
2022/12/21 05:23:35;;;;;;;38.63;17.67;;;;;;;9.42;100.00;99695.03;5099411;28;20439;-67
2022/12/21 05:26:04;;;;;;;35.47;16.00;;;;;;;9.31;100.00;99688.06;5091058;28;20473;-65
2022/12/21 05:28:30;;;;;;;39.43;18.10;;;;;;;9.36;100.00;99691.13;5086530;28;20456;-66
2022/12/21 05:30:57;;;;;;;40.30;17.73;;;;;;;9.38;100.00;99689.16;5084192;28;20491;-64
2022/12/21 05:33:24;;;;;;;42.97;19.27;;;;;;;9.40;100.00;99691.69;5096826;28;20447;-64
2022/12/21 05:35:51;;;;;;;37.37;18.33;;;;;;;9.41;100.00;99702.22;5085550;28;20509;-64
2022/12/21 05:38:17;;;;;;;38.53;16.47;;;;;;;9.36;100.00;99699.16;5094716;28;20502;-68
2022/12/21 05:40:47;;;;;;;38.70;18.60;;;;;;;9.35;100.00;99699.28;5091721;28;20631;-71
2022/12/21 05:43:15;;;;;;;44.90;16.77;;;;;;;9.32;100.00;99699.56;5083177;28;20436;-70
2022/12/21 05:45:42;;;;;;;39.13;18.53;;;;;;;9.40;100.00;99699.69;5098132;28;21279;-70
2022/12/21 05:48:09;;;;;;;41.10;18.63;;;;;;;9.43;100.00;99702.91;5085579;28;20456;-70
2022/12/21 05:50:38;;;;;;;49.90;19.87;;;;;;;9.39;100.00;99700.66;5092697;28;20472;-70
2022/12/21 05:53:05;;;;;;;40.47;19.90;;;;;;;9.48;100.00;99704.28;5095564;28;20452;-70
2022/12/21 05:55:32;;;;;;;44.93;20.87;;;;;;;9.66;100.00;99701.69;5100149;28;20487;-70
2022/12/21 05:57:59;;;;;;;42.80;20.90;;;;;;;9.47;100.00;99707.94;5100541;28;20487;-70
2022/12/21 06:00:27;;;;;;;42.70;17.47;;;;;;;9.52;100.00;99695.00;5098199;28;20575;-70
2022/12/21 06:02:54;;;;;;;45.60;20.37;;;;;;;9.46;100.00;99699.13;5100204;28;20464;-70
2022/12/21 06:05:23;;;;;;;43.60;18.83;;;;;;;9.39;100.00;99698.00;5099901;28;20565;-70
2022/12/21 06:07:50;;;;;;;37.93;18.07;;;;;;;9.33;100.00;99690.59;5100162;28;20547;-70
2022/12/21 06:10:17;;;;;;;40.93;19.33;;;;;;;9.36;100.00;99708.97;5095460;28;20475;-70
2022/12/21 06:12:43;;;;;;;42.40;19.00;;;;;;;9.36;100.00;99699.16;5080866;28;20448;-72
2022/12/21 06:15:11;;;;;;;38.40;18.23;;;;;;;9.33;100.00;99702.09;5082670;28;20488;-72
2022/12/21 06:17:39;;;;;;;46.13;19.93;;;;;;;9.31;100.00;99700.56;5091949;28;20483;-72
2022/12/21 06:20:07;;;;;;;40.30;19.83;;;;;;;9.39;100.00;99698.84;5093760;28;20947;-72
2022/12/21 06:22:34;;;;;;;44.40;19.87;;;;;;;9.43;100.00;99699.41;5083091;28;20452;-72
2022/12/21 06:25:01;;;;;;;48.23;20.50;;;;;;;9.48;100.00;99696.28;5095718;28;20449;-72
2022/12/21 06:27:28;;;;;;;43.30;19.10;;;;;;;9.48;100.00;99693.59;5089106;27;20472;-63
2022/12/21 06:29:54;;;;;;;43.90;21.40;;;;;;;9.52;100.00;99689.69;5079933;28;20460;-63
2022/12/21 06:32:21;;;;;;;42.50;20.37;;;;;;;9.55;100.00;99690.22;5084324;28;20563;-64
2022/12/21 06:34:49;;;;;;;46.87;21.30;;;;;;;9.50;100.00;99686.31;5083970;28;20480;-63
2022/12/21 06:37:16;;;;;;;51.70;23.77;;;;;;;9.55;100.00;99692.06;5079695;28;20495;-63
2022/12/21 06:39:43;;;;;;;53.00;22.50;;;;;;;9.41;100.00;99686.22;5071365;28;20502;-63
2022/12/21 06:42:10;;;;;;;61.43;25.00;;;;;;;9.34;100.00;99687.78;5083238;28;21016;-63
2022/12/21 06:44:38;;;;;;;53.37;24.47;;;;;;;9.37;100.00;99687.50;5083455;28;20486;-63
2022/12/21 06:47:05;;;;;;;55.03;25.10;;;;;;;9.45;100.00;99678.75;5072299;28;20547;-63
2022/12/21 06:49:32;;;;;;;52.67;26.00;;;;;;;9.50;100.00;99670.31;5063543;28;20437;-63
2022/12/21 06:52:00;;;;;;;52.40;24.63;;;;;;;9.47;100.00;99674.09;5062517;28;21170;-63
2022/12/21 06:54:27;;;;;;;62.10;24.17;;;;;;;9.37;100.00;99676.81;5066118;28;20461;-63
2022/12/21 06:56:53;;;;;;;54.40;22.63;;;;;;;9.25;100.00;99685.97;5065758;28;20607;-63
2022/12/21 06:59:20;;;;;;;53.00;23.03;;;;;;;9.38;100.00;99683.00;5071263;28;20483;-63
2022/12/21 07:01:47;;;;;;;56.63;23.07;;;;;;;9.29;100.00;99689.19;5073728;28;20480;-64
2022/12/21 07:04:15;;;;;;;55.40;23.17;;;;;;;9.34;100.00;99690.44;5070854;28;20453;-63
2022/12/21 07:06:42;;;;;;;50.83;22.83;;;;;;;9.31;100.00;99700.56;5069412;28;20480;-63
2022/12/21 07:09:12;;;;;;;48.47;20.57;;;;;;;9.34;100.00;99695.78;5083735;28;20435;-63
2022/12/21 07:11:39;;;;;;;47.37;21.00;;;;;;;9.34;100.00;99698.47;5083585;28;20495;-63
2022/12/21 07:14:07;;;;;;;48.73;21.30;;;;;;;9.36;100.00;99695.66;5071989;28;20450;-63
2022/12/21 07:16:34;;;;;;;50.03;21.50;;;;;;;9.48;100.00;99698.94;5076066;28;20488;-63
2022/12/21 07:19:02;;;;;;;52.47;22.93;;;;;;;9.41;100.00;99694.22;5068650;28;20473;-64
2022/12/21 07:21:30;;;;;;;44.67;21.70;;;;;;;9.47;100.00;99703.44;5052477;28;20746;-64
2022/12/21 07:23:58;;;;;;;49.60;20.63;;;;;;;9.38;100.00;99699.00;5063218;28;20488;-64
2022/12/21 07:26:26;;;;;;;47.40;20.27;;;;;;;9.35;100.00;99715.28;5079559;28;20483;-64
2022/12/21 07:28:55;;;;;;;49.07;19.80;;;;;;;9.27;100.00;99717.84;5082211;28;20440;-64
2022/12/21 07:31:25;;;;;;;39.63;18.60;;;;;;;9.33;100.00;99728.78;5078891;28;20486;-64
2022/12/21 07:33:52;;;;;;;48.20;20.17;;;;;;;9.26;100.00;99718.84;5078325;28;20466;-64
2022/12/21 07:36:20;;;;;;;51.37;20.93;;;;;;;9.33;100.00;99718.09;5075161;28;20483;-64
2022/12/21 07:38:48;;;;;;;48.90;20.70;;;;;;;9.37;100.00;99719.50;5081134;28;20503;-64
2022/12/21 07:41:18;;;;;;;47.50;21.07;;;;;;;9.38;100.00;99718.50;5060181;28;20465;-64
2022/12/21 07:43:47;;;;;;;38.57;17.80;;;;;;;9.31;100.00;99722.75;5074958;28;20480;-64
2022/12/21 07:46:14;;;;;;;44.03;17.90;;;;;;;9.27;100.00;99731.19;5069410;28;20477;-64
2022/12/21 07:48:41;;;;;;;48.67;20.70;;;;;;;9.27;100.00;99732.03;5066681;28;20441;-64
2022/12/21 07:51:08;;;;;;;54.97;19.43;;;;;;;9.27;100.00;99734.72;5072480;28;20483;-64
2022/12/21 07:53:36;;;;;;;45.10;19.77;;;;;;;9.30;100.00;99733.56;5082947;28;20424;-64
2022/12/21 07:56:04;;;;;;;44.70;19.27;;;;;;;9.33;100.00;99728.78;5081049;28;20595;-63
2022/12/21 07:58:31;;;;;;;49.47;19.93;;;;;;;9.35;100.00;99733.97;5080901;28;20526;-64
2022/12/21 08:01:05;;;;;;;52.47;20.63;;;;;;;9.38;100.00;99731.00;5074829;28;20514;-64
2022/12/21 08:03:32;;;;;;;43.43;19.50;;;;;;;9.39;100.00;99733.53;5072865;28;20531;-64
2022/12/21 08:05:59;;;;;;;73.93;22.27;;;;;;;9.25;100.00;99723.31;5064091;28;20515;-64
2022/12/21 08:08:25;;;;;;;280.87;32.10;;;;;;;9.17;100.00;99731.22;5069098;28;20452;-63
2022/12/21 08:10:52;;;;;;;126.20;23.43;;;;;;;9.15;100.00;99723.38;5070803;28;20476;-64
2022/12/21 08:13:19;;;;;;;74.13;21.80;;;;;;;9.19;100.00;99724.75;5068953;28;20522;-65
2022/12/21 08:15:46;;;;;;;117.13;24.40;;;;;;;9.18;100.00;99727.56;5064714;28;20473;-64
2022/12/21 08:18:14;;;;;;;71.23;21.97;;;;;;;9.19;100.00;99727.41;5076594;28;20560;-64
2022/12/21 08:20:44;;;;;;;59.13;19.90;;;;;;;9.17;100.00;99729.38;5069102;28;20503;-64
2022/12/21 08:23:11;;;;;;;36.77;16.93;;;;;;;9.22;100.00;99736.97;5069745;28;20860;-63
2022/12/21 08:25:38;;;;;;;47.10;19.80;;;;;;;9.24;100.00;99732.31;5064071;28;20484;-63
2022/12/21 08:28:05;;;;;;;37.43;16.63;;;;;;;9.25;100.00;99733.97;5065296;28;20484;-64
2022/12/21 08:30:33;;;;;;;43.73;17.60;;;;;;;9.24;100.00;99727.81;5063933;28;20472;-63
2022/12/21 08:32:59;;;;;;;45.33;17.53;;;;;;;9.25;100.00;99728.66;5062706;28;20988;-64
2022/12/21 08:35:30;;;;;;;39.20;16.07;;;;;;;9.24;100.00;99727.00;5073978;28;20463;-64
2022/12/21 08:37:57;;;;;;;37.13;16.20;;;;;;;9.26;100.00;99721.50;5078611;28;20488;-64
2022/12/21 08:40:24;;;;;;;32.60;15.80;;;;;;;9.29;100.00;99719.38;5080873;28;20480;-64
2022/12/21 08:42:51;;;;;;;50.37;19.57;;;;;;;9.30;100.00;99718.38;5089471;28;20445;-64
2022/12/21 08:45:17;;;;;;;76.33;23.80;;;;;;;9.30;100.00;99713.06;5089600;28;20490;-64
2022/12/21 08:47:44;;;;;;;46.47;18.43;;;;;;;9.40;100.00;99697.03;5081204;28;20927;-64
2022/12/21 08:50:11;;;;;;;55.40;19.30;;;;;;;9.35;100.00;99699.28;5093972;28;20447;-64
2022/12/21 08:52:39;;;;;;;96.43;20.60;;;;;;;9.37;100.00;99695.50;5088248;28;20485;-64
2022/12/21 08:55:07;;;;;;;30.53;13.87;;;;;;;9.53;100.00;99710.00;5101161;28;20452;-64
2022/12/21 08:57:34;;;;;;;45.23;16.70;;;;;;;9.48;100.00;99705.13;5089940;28;20470;-63
2022/12/21 09:00:01;;;;;;;34.37;15.10;;;;;;;9.47;100.00;99713.28;5075239;28;20516;-64
2022/12/21 09:02:28;;;;;;;36.87;16.37;;;;;;;9.45;100.00;99702.75;5077751;28;20472;-64
2022/12/21 09:04:55;;;;;;;40.43;18.33;;;;;;;9.38;100.00;99691.00;5088169;28;20460;-64
2022/12/21 09:07:22;;;;;;;41.57;17.33;;;;;;;9.44;100.00;99709.06;5076214;28;20480;-64
2022/12/21 09:09:50;;;;;;;40.07;16.47;;;;;;;9.53;100.00;99704.69;5077095;28;20466;-64
2022/12/21 09:12:18;;;;;;;43.70;17.50;;;;;;;9.53;100.00;99708.22;5086367;28;20476;-64
2022/12/21 09:14:44;;;;;;;36.73;16.40;;;;;;;9.49;100.00;99712.13;5086610;28;20449;-64
2022/12/21 09:17:11;;;;;;;35.87;15.87;;;;;;;9.47;100.00;99714.13;5084785;28;20510;-63
2022/12/21 09:19:39;;;;;;;36.70;15.77;;;;;;;9.46;100.00;99707.13;5081865;28;20628;-64
2022/12/21 09:22:07;;;;;;;54.10;19.77;;;;;;;9.34;100.00;99709.13;5087236;28;20545;-63
2022/12/21 09:24:36;;;;;;;50.10;18.90;;;;;;;9.39;100.00;99709.53;5085756;28;20882;-64
2022/12/21 09:27:06;;;;;;;93.73;23.00;;;;;;;9.39;100.00;99714.88;5086433;28;20544;-64
2022/12/21 09:29:35;;;;;;;49.10;15.80;;;;;;;9.44;100.00;99717.06;5080323;28;20477;-64
2022/12/21 09:32:02;;;;;;;30.83;14.77;;;;;;;9.47;100.00;99708.78;5078861;28;21051;-64
2022/12/21 09:34:31;;;;;;;41.50;16.37;;;;;;;9.51;100.00;99715.53;5082307;28;20452;-64
2022/12/21 09:37:00;;;;;;;41.47;17.63;;;;;;;9.61;100.00;99720.81;5087658;28;20483;-64
2022/12/21 09:39:27;;;;;;;35.03;15.40;;;;;;;9.69;100.00;99717.41;5092014;28;20582;-64
2022/12/21 09:42:13;;;;;;;41.67;18.43;;;;;;;9.73;100.00;99708.94;5081031;28;20491;-64
2022/12/21 09:45:01;;;;;;;38.50;17.20;;;;;;;9.68;100.00;99729.06;5080151;28;20472;-64
2022/12/21 09:47:34;;;;;;;39.93;15.70;;;;;;;9.56;100.00;99728.41;5080008;28;20507;-64
2022/12/21 09:50:04;;;;;;;31.90;13.87;;;;;;;9.49;100.00;99727.31;5078311;28;20456;-64
2022/12/21 09:52:37;;;;;;;28.13;14.00;;;;;;;9.34;100.00;99722.47;5078405;28;20562;-64
2022/12/21 09:55:07;;;;;;;32.67;14.33;;;;;;;9.37;100.00;99734.66;5078901;28;20475;-64
2022/12/21 09:57:36;;;;;;;27.27;14.83;;;;;;;9.50;100.00;99734.34;5089767;28;20495;-64
2022/12/21 10:00:15;;;;;;;37.83;14.03;;;;;;;9.51;100.00;99730.69;5079835;28;20516;-63
2022/12/21 10:03:06;;;;;;;29.80;14.67;;;;;;;9.51;100.00;99733.34;5078406;28;20460;-64
2022/12/21 10:05:44;;;;;;;29.90;15.83;;;;;;;9.64;100.00;99741.03;5074849;28;20488;-64
2022/12/21 10:08:27;;;;;;;28.60;17.03;;;;;;;9.55;100.00;99742.75;5090138;28;20519;-64
2022/12/21 10:11:02;;;;;;;29.43;15.27;;;;;;;9.48;100.00;99733.63;5066733;28;20481;-64
2022/12/21 10:13:38;;;;;;;29.10;14.67;;;;;;;9.49;100.00;99728.16;5084588;28;20455;-64
2022/12/21 10:16:12;;;;;;;29.47;14.17;;;;;;;9.48;100.00;99714.94;5066827;28;20537;-64
2022/12/21 10:18:43;;;;;;;27.40;13.43;;;;;;;9.33;100.00;99726.09;5087107;28;20448;-64
2022/12/21 10:21:14;;;;;;;28.73;14.20;;;;;;;9.35;100.00;99720.63;5084907;28;20959;-64
2022/12/21 10:23:43;;;;;;;34.43;14.57;;;;;;;9.51;100.00;99722.66;5086019;28;20824;-63
2022/12/21 10:26:14;;;;;;;34.00;15.90;;;;;;;9.56;100.00;99709.72;5082200;28;20468;-64
2022/12/21 10:28:48;;;;;;;28.97;14.93;;;;;;;9.59;100.00;99702.25;5092576;28;20964;-64
2022/12/21 10:31:19;;;;;;;28.60;14.10;;;;;;;9.75;100.00;99703.47;5093478;27;20497;-63
2022/12/21 10:33:48;;;;;;;25.10;13.13;;;;;;;9.65;100.00;99708.84;5086891;28;20964;-63
2022/12/21 10:36:17;;;;;;;28.63;12.30;;;;;;;9.71;100.00;99699.41;5082929;28;20498;-63
2022/12/21 10:38:44;;;;;;;19.20;12.00;;;;;;;9.75;100.00;99706.97;5092428;28;20564;-64
2022/12/21 10:41:15;;;;;;;26.30;11.43;;;;;;;9.76;100.00;99705.97;5084219;28;20568;-64
2022/12/21 10:43:49;;;;;;;22.80;11.73;;;;;;;9.75;100.00;99701.63;5085848;28;20470;-64
2022/12/21 10:46:17;;;;;;;20.70;10.67;;;;;;;9.72;100.00;99706.41;5093924;28;20847;-64
2022/12/21 10:48:45;;;;;;;22.13;11.30;;;;;;;9.72;100.00;99703.75;5082680;28;20483;-64
2022/12/21 10:51:21;;;;;;;24.13;12.03;;;;;;;9.50;100.00;99697.00;5083167;28;20467;-64
2022/12/21 10:54:00;;;;;;;25.23;13.80;;;;;;;9.53;100.00;99699.34;5084748;28;20506;-64
2022/12/21 10:56:27;;;;;;;34.43;16.83;;;;;;;9.46;100.00;99691.13;5083271;28;20471;-64
2022/12/21 10:58:56;;;;;;;27.60;15.30;;;;;;;9.59;100.00;99694.25;5084468;28;21089;-64
2022/12/21 11:01:27;;;;;;;29.53;15.53;;;;;;;9.55;100.00;99703.56;5086895;28;20984;-64
2022/12/21 11:04:08;;;;;;;30.10;15.00;;;;;;;9.64;100.00;99690.31;5090253;28;20570;-64
2022/12/21 11:06:35;;;;;;;36.60;16.60;;;;;;;9.48;100.00;99701.59;5080953;28;21174;-64
2022/12/21 11:09:02;;;;;;;29.87;15.40;;;;;;;9.31;100.00;99698.75;5080754;28;20509;-64
2022/12/21 11:11:30;;;;;;;31.50;16.60;;;;;;;9.33;100.00;99695.94;5084293;28;20486;-64
2022/12/21 11:13:59;;;;;;;35.70;15.67;;;;;;;9.19;100.00;99694.56;5084067;28;20455;-64
2022/12/21 11:16:29;;;;;;;36.30;17.90;;;;;;;9.20;100.00;99699.75;5094498;28;20488;-64
2022/12/21 11:18:59;;;;;;;36.97;17.37;;;;;;;9.17;100.00;99704.56;5077708;28;20512;-64
2022/12/21 11:21:38;;;;;;;40.27;18.17;;;;;;;9.08;100.00;99698.25;5090066;28;20460;-64
2022/12/21 11:24:10;;;;;;;33.50;18.30;;;;;;;9.02;100.00;99715.66;5090532;28;20855;-64
2022/12/21 11:26:41;;;;;;;35.20;18.70;;;;;;;9.21;100.00;99695.25;5082956;28;20507;-64
2022/12/21 11:29:17;;;;;;;38.20;18.20;;;;;;;9.36;100.00;99691.13;5084982;28;20466;-63
2022/12/21 11:31:45;;;;;;;36.90;17.30;;;;;;;9.61;100.00;99680.78;5083438;28;20513;-64
2022/12/21 11:34:29;;;;;;;37.47;17.17;;;;;;;9.64;100.00;99691.16;5085833;28;20949;-64
2022/12/21 11:36:57;;;;;;;35.83;16.80;;;;;;;9.50;100.00;99700.50;5099725;28;20854;-64
2022/12/21 11:39:24;;;;;;;32.73;15.37;;;;;;;9.51;100.00;99699.50;5073955;28;20548;-64